createdAt,value
2018-07-15T00:00:11.966Z,14.70
2018-07-15T00:01:17.391Z,14.80
2018-07-15T00:02:22.853Z,14.80
2018-07-15T00:03:28.325Z,14.80
2018-07-15T00:04:33.934Z,14.80
2018-07-15T00:05:39.538Z,14.80
2018-07-15T00:06:44.965Z,14.70
2018-07-15T00:07:50.462Z,14.70
2018-07-15T00:08:55.977Z,14.70
2018-07-15T00:10:01.538Z,14.70
2018-07-15T00:11:07.002Z,14.70
2018-07-15T00:12:12.441Z,14.70
2018-07-15T00:13:17.845Z,14.70
2018-07-15T00:14:23.257Z,14.70
2018-07-15T00:15:28.785Z,14.60
2018-07-15T00:16:34.272Z,14.60
2018-07-15T00:17:39.713Z,14.60
2018-07-15T00:18:45.159Z,14.60
2018-07-15T00:19:50.602Z,14.60
2018-07-15T00:20:56.426Z,14.60
2018-07-15T00:22:01.994Z,14.60
2018-07-15T00:23:08.265Z,14.50
2018-07-15T00:24:13.698Z,14.50
2018-07-15T00:25:19.124Z,14.50
2018-07-15T00:26:24.589Z,14.50
2018-07-15T00:27:30.049Z,14.50
2018-07-15T00:28:35.481Z,14.50
2018-07-15T00:29:40.950Z,14.50
2018-07-15T00:30:46.372Z,14.50
2018-07-15T00:31:51.830Z,14.50
2018-07-15T00:32:57.289Z,14.50
2018-07-15T00:34:02.776Z,14.40
2018-07-15T00:35:08.327Z,14.40
2018-07-15T00:36:13.845Z,14.40
2018-07-15T00:37:19.318Z,14.40
2018-07-15T00:38:24.911Z,14.40
2018-07-15T00:39:30.324Z,14.40
2018-07-15T00:40:35.781Z,14.40
2018-07-15T00:41:41.290Z,14.40
2018-07-15T00:42:46.785Z,14.40
2018-07-15T00:43:52.646Z,14.40
2018-07-15T00:44:58.109Z,14.50
2018-07-15T00:46:03.601Z,14.40
2018-07-15T00:47:09.205Z,14.40
2018-07-15T00:48:14.678Z,14.40
2018-07-15T00:49:20.126Z,14.40
2018-07-15T00:50:25.621Z,14.40
2018-07-15T00:51:31.105Z,14.50
2018-07-15T00:52:36.573Z,14.40
2018-07-15T00:54:47.112Z,14.30
2018-07-15T00:55:52.544Z,14.30
2018-07-15T00:56:57.997Z,14.30
2018-07-15T00:58:03.446Z,14.20
2018-07-15T00:59:08.954Z,14.10
2018-07-15T01:00:18.818Z,14.10
2018-07-15T01:01:24.238Z,14.10
2018-07-15T01:02:29.665Z,14.10
2018-07-15T01:03:35.504Z,14.10
2018-07-15T01:04:40.945Z,14.10
2018-07-15T01:05:46.816Z,14.10
2018-07-15T01:06:52.294Z,14.10
2018-07-15T01:07:57.781Z,14.10
2018-07-15T01:09:03.276Z,14.10
2018-07-15T01:10:08.901Z,14.10
2018-07-15T01:11:14.385Z,14.10
2018-07-15T01:12:19.911Z,14.10
2018-07-15T01:13:25.541Z,14.10
2018-07-15T01:14:30.976Z,14.10
2018-07-15T01:15:36.501Z,14.10
2018-07-15T01:16:42.158Z,14.00
2018-07-15T01:17:47.655Z,14.00
2018-07-15T01:18:53.121Z,14.00
2018-07-15T01:19:58.552Z,13.90
2018-07-15T01:21:03.977Z,13.90
2018-07-15T01:22:09.471Z,13.90
2018-07-15T01:24:20.106Z,13.80
2018-07-15T01:25:25.552Z,13.80
2018-07-15T01:26:31.398Z,13.70
2018-07-15T01:27:36.829Z,13.80
2018-07-15T01:28:42.246Z,13.80
2018-07-15T01:29:47.662Z,13.70
2018-07-15T01:30:53.135Z,13.70
2018-07-15T01:31:58.569Z,13.70
2018-07-15T01:33:04.022Z,13.70
2018-07-15T01:34:09.437Z,13.70
2018-07-15T01:35:14.974Z,13.70
2018-07-15T01:36:20.443Z,13.70
2018-07-15T01:37:25.903Z,13.70
2018-07-15T01:38:31.857Z,13.70
2018-07-15T01:39:37.297Z,13.70
2018-07-15T01:40:42.719Z,13.60
2018-07-15T01:41:48.160Z,13.70
2018-07-15T01:42:53.580Z,13.60
2018-07-15T01:43:59.105Z,13.60
2018-07-15T01:45:04.594Z,13.60
2018-07-15T01:46:10.077Z,13.60
2018-07-15T01:47:15.690Z,13.50
2018-07-15T01:48:21.263Z,13.50
2018-07-15T01:49:26.762Z,13.50
2018-07-15T01:50:32.240Z,13.50
2018-07-15T01:51:37.657Z,13.50
2018-07-15T01:52:43.035Z,13.50
2018-07-15T01:53:48.573Z,13.50
2018-07-15T01:54:54.053Z,13.50
2018-07-15T01:55:59.501Z,13.50
2018-07-15T01:57:05.166Z,13.50
2018-07-15T01:58:10.627Z,13.50
2018-07-15T01:59:16.102Z,13.40
2018-07-15T02:00:21.593Z,13.40
2018-07-15T02:01:27.068Z,13.40
2018-07-15T02:02:32.479Z,13.40
2018-07-15T02:03:37.908Z,13.30
2018-07-15T02:04:43.369Z,13.40
2018-07-15T02:05:48.858Z,13.40
2018-07-15T02:06:54.289Z,13.30
2018-07-15T02:07:59.714Z,13.30
2018-07-15T02:09:05.821Z,13.30
2018-07-15T02:10:11.450Z,13.30
2018-07-15T02:11:16.841Z,13.30
2018-07-15T02:12:22.300Z,13.30
2018-07-15T02:13:27.749Z,13.30
2018-07-15T02:14:33.202Z,13.20
2018-07-15T02:15:38.637Z,13.20
2018-07-15T02:16:44.070Z,13.20
2018-07-15T02:17:49.519Z,13.20
2018-07-15T02:18:54.975Z,13.20
2018-07-15T02:20:00.420Z,13.20
2018-07-15T02:21:05.879Z,13.30
2018-07-15T02:22:11.337Z,13.30
2018-07-15T02:23:16.830Z,13.20
2018-07-15T02:24:22.249Z,13.20
2018-07-15T02:25:27.695Z,13.20
2018-07-15T02:26:33.217Z,13.30
2018-07-15T02:27:38.682Z,13.20
2018-07-15T02:28:44.079Z,13.20
2018-07-15T02:29:49.501Z,13.20
2018-07-15T02:30:54.973Z,13.30
2018-07-15T02:32:00.680Z,13.30
2018-07-15T02:33:06.468Z,13.30
2018-07-15T02:34:12.021Z,13.30
2018-07-15T02:35:17.438Z,13.30
2018-07-15T02:36:22.916Z,13.30
2018-07-15T02:37:28.401Z,13.30
2018-07-15T02:38:33.853Z,13.20
2018-07-15T02:39:39.291Z,13.20
2018-07-15T02:40:45.133Z,13.20
2018-07-15T02:41:50.650Z,13.20
2018-07-15T02:42:56.076Z,13.20
2018-07-15T02:44:01.518Z,13.20
2018-07-15T02:45:07.414Z,13.20
2018-07-15T02:46:12.883Z,13.20
2018-07-15T02:47:18.293Z,13.20
2018-07-15T02:48:23.758Z,13.20
2018-07-15T02:49:29.185Z,13.10
2018-07-15T02:50:34.625Z,13.20
2018-07-15T02:51:40.062Z,13.20
2018-07-15T02:52:45.536Z,13.10
2018-07-15T02:53:51.111Z,13.10
2018-07-15T02:54:56.570Z,13.10
2018-07-15T02:56:01.961Z,13.10
2018-07-15T02:57:07.421Z,13.10
2018-07-15T02:58:12.869Z,13.10
2018-07-15T02:59:18.299Z,13.10
2018-07-15T03:00:23.853Z,13.00
2018-07-15T03:01:29.305Z,13.10
2018-07-15T03:02:34.729Z,13.00
2018-07-15T03:03:40.144Z,13.00
2018-07-15T03:04:45.639Z,13.00
2018-07-15T03:05:51.186Z,13.00
2018-07-15T03:06:56.592Z,13.00
2018-07-15T03:08:02.034Z,13.00
2018-07-15T03:09:10.377Z,12.90
2018-07-15T03:10:16.061Z,13.00
2018-07-15T03:11:21.515Z,12.90
2018-07-15T03:12:26.946Z,12.90
2018-07-15T03:13:32.397Z,12.90
2018-07-15T03:14:37.924Z,12.90
2018-07-15T03:15:43.383Z,12.80
2018-07-15T03:16:48.850Z,12.80
2018-07-15T03:17:54.694Z,12.80
2018-07-15T03:19:00.157Z,12.80
2018-07-15T03:20:05.661Z,12.80
2018-07-15T03:21:11.108Z,12.80
2018-07-15T03:22:16.665Z,12.80
2018-07-15T03:23:22.720Z,12.80
2018-07-15T03:24:28.157Z,12.80
2018-07-15T03:25:33.574Z,12.80
2018-07-15T03:26:38.984Z,12.80
2018-07-15T03:27:44.519Z,12.80
2018-07-15T03:28:50.400Z,12.90
2018-07-15T03:29:55.842Z,12.80
2018-07-15T03:31:01.315Z,12.80
2018-07-15T03:33:11.794Z,12.80
2018-07-15T03:34:17.275Z,12.80
2018-07-15T03:35:22.866Z,12.80
2018-07-15T03:36:28.424Z,12.80
2018-07-15T03:37:33.957Z,12.70
2018-07-15T03:38:39.540Z,12.70
2018-07-15T03:39:45.058Z,12.70
2018-07-15T03:40:50.437Z,12.70
2018-07-15T03:41:55.856Z,12.70
2018-07-15T03:43:01.329Z,12.70
2018-07-15T03:44:07.121Z,12.60
2018-07-15T03:45:12.977Z,12.60
2018-07-15T03:46:18.449Z,12.60
2018-07-15T03:47:23.871Z,12.60
2018-07-15T03:48:29.297Z,12.60
2018-07-15T03:49:34.697Z,12.60
2018-07-15T03:50:40.293Z,12.50
2018-07-15T03:51:45.718Z,12.50
2018-07-15T03:52:51.177Z,12.50
2018-07-15T03:53:56.652Z,12.50
2018-07-15T03:55:02.105Z,12.50
2018-07-15T03:56:07.663Z,12.60
2018-07-15T03:58:18.118Z,12.60
2018-07-15T03:59:23.579Z,12.60
2018-07-15T04:00:29.021Z,12.60
2018-07-15T04:01:34.577Z,12.60
2018-07-15T04:02:40.011Z,12.60
2018-07-15T04:03:45.489Z,12.60
2018-07-15T04:04:50.917Z,12.60
2018-07-15T04:05:56.383Z,12.60
2018-07-15T04:07:01.901Z,12.60
2018-07-15T04:08:07.347Z,12.70
2018-07-15T04:09:12.762Z,12.80
2018-07-15T04:10:18.451Z,12.80
2018-07-15T04:11:23.841Z,12.90
2018-07-15T04:12:29.314Z,12.90
2018-07-15T04:13:35.182Z,13.10
2018-07-15T04:14:40.593Z,13.40
2018-07-15T04:15:46.041Z,13.80
2018-07-15T04:16:51.504Z,14.30
2018-07-15T04:18:05.441Z,14.70
2018-07-15T04:19:10.966Z,15.10
2018-07-15T04:20:16.438Z,15.60
2018-07-15T04:21:21.878Z,15.90
2018-07-15T04:22:27.394Z,16.20
2018-07-15T04:23:32.887Z,16.60
2018-07-15T04:24:38.320Z,16.90
2018-07-15T04:25:43.770Z,17.10
2018-07-15T04:26:49.206Z,17.30
2018-07-15T04:27:54.630Z,17.40
2018-07-15T04:29:00.418Z,17.60
2018-07-15T04:30:06.394Z,17.70
2018-07-15T04:31:11.838Z,17.90
2018-07-15T04:32:17.280Z,18.10
2018-07-15T04:33:22.737Z,18.30
2018-07-15T04:34:28.134Z,18.30
2018-07-15T04:35:33.611Z,18.40
2018-07-15T04:36:39.026Z,18.40
2018-07-15T04:37:44.477Z,18.50
2018-07-15T04:38:50.034Z,18.60
2018-07-15T04:39:55.469Z,18.60
2018-07-15T04:41:00.958Z,18.60
2018-07-15T04:42:06.437Z,18.60
2018-07-15T04:43:11.910Z,18.60
2018-07-15T04:44:17.382Z,18.70
2018-07-15T04:45:22.903Z,18.80
2018-07-15T04:46:28.421Z,18.90
2018-07-15T04:47:34.665Z,19.00
2018-07-15T04:48:40.204Z,19.10
2018-07-15T04:49:45.630Z,19.10
2018-07-15T04:50:51.054Z,19.20
2018-07-15T04:51:56.559Z,19.30
2018-07-15T04:53:02.006Z,19.40
2018-07-15T04:54:08.319Z,19.40
2018-07-15T04:55:13.751Z,19.40
2018-07-15T04:56:19.141Z,19.50
2018-07-15T04:57:24.758Z,19.60
2018-07-15T04:58:30.594Z,19.60
2018-07-15T04:59:36.130Z,19.70
2018-07-15T05:00:41.537Z,19.80
2018-07-15T05:01:46.944Z,19.80
2018-07-15T05:02:52.374Z,19.90
2018-07-15T05:03:57.942Z,19.90
2018-07-15T05:05:03.437Z,20.00
2018-07-15T05:06:08.938Z,20.00
2018-07-15T05:07:14.353Z,19.80
2018-07-15T05:08:19.889Z,19.50
2018-07-15T05:09:25.354Z,19.00
2018-07-15T05:10:30.850Z,18.60
2018-07-15T05:11:36.822Z,18.10
2018-07-15T05:12:42.334Z,17.70
2018-07-15T05:13:47.818Z,17.30
2018-07-15T05:14:53.249Z,16.90
2018-07-15T05:15:58.805Z,16.60
2018-07-15T05:17:04.205Z,16.40
2018-07-15T05:18:09.805Z,16.10
2018-07-15T05:19:15.398Z,15.90
2018-07-15T05:20:20.832Z,15.70
2018-07-15T05:21:26.777Z,15.70
2018-07-15T05:22:32.221Z,15.60
2018-07-15T05:23:37.654Z,15.50
2018-07-15T05:24:43.119Z,15.50
2018-07-15T05:25:48.621Z,15.40
2018-07-15T05:26:54.122Z,15.40
2018-07-15T05:27:59.561Z,15.30
2018-07-15T05:29:05.058Z,15.20
2018-07-15T05:30:10.517Z,15.20
2018-07-15T05:31:15.972Z,15.20
2018-07-15T05:32:21.430Z,15.20
2018-07-15T05:33:26.943Z,15.30
2018-07-15T05:34:32.377Z,15.20
2018-07-15T05:35:37.893Z,15.20
2018-07-15T05:36:43.348Z,15.30
2018-07-15T05:37:48.795Z,15.30
2018-07-15T05:38:54.260Z,15.30
2018-07-15T05:39:59.721Z,15.30
2018-07-15T05:41:05.201Z,15.30
2018-07-15T05:42:10.689Z,15.40
2018-07-15T05:43:16.148Z,15.50
2018-07-15T05:44:21.636Z,15.50
2018-07-15T05:45:27.069Z,15.40
2018-07-15T05:46:32.515Z,15.50
2018-07-15T05:47:38.043Z,15.50
2018-07-15T05:48:43.485Z,15.50
2018-07-15T05:49:48.969Z,15.50
2018-07-15T05:50:54.630Z,15.60
2018-07-15T05:52:00.186Z,15.70
2018-07-15T05:53:05.670Z,15.80
2018-07-15T05:54:11.162Z,15.80
2018-07-15T05:55:16.609Z,15.80
2018-07-15T05:56:22.079Z,15.80
2018-07-15T05:57:27.573Z,15.90
2018-07-15T05:58:33.498Z,15.90
2018-07-15T05:59:39.080Z,15.90
2018-07-15T06:00:44.589Z,15.90
2018-07-15T06:01:50.061Z,15.90
2018-07-15T06:02:55.509Z,15.90
2018-07-15T06:04:00.982Z,16.00
2018-07-15T06:05:06.610Z,15.90
2018-07-15T06:06:12.044Z,15.90
2018-07-15T06:07:17.465Z,16.00
2018-07-15T06:08:22.961Z,16.00
2018-07-15T06:09:28.389Z,16.10
2018-07-15T06:10:33.892Z,16.20
2018-07-15T06:11:39.340Z,16.20
2018-07-15T06:12:44.885Z,16.30
2018-07-15T06:13:50.682Z,16.50
2018-07-15T06:14:56.231Z,16.60
2018-07-15T06:16:01.677Z,16.60
2018-07-15T06:17:07.431Z,16.70
2018-07-15T06:18:12.915Z,16.70
2018-07-15T06:19:18.310Z,16.80
2018-07-15T06:20:23.829Z,16.90
2018-07-15T06:21:29.301Z,16.90
2018-07-15T06:22:34.772Z,16.90
2018-07-15T06:23:40.259Z,16.90
2018-07-15T06:24:45.693Z,16.90
2018-07-15T06:25:51.153Z,16.90
2018-07-15T06:26:56.610Z,17.00
2018-07-15T06:28:02.101Z,17.10
2018-07-15T06:29:07.601Z,17.00
2018-07-15T06:30:13.122Z,17.10
2018-07-15T06:31:18.651Z,17.10
2018-07-15T06:32:24.134Z,17.10
2018-07-15T06:33:29.536Z,17.10
2018-07-15T06:34:34.988Z,17.20
2018-07-15T06:35:40.453Z,17.30
2018-07-15T06:36:45.896Z,17.30
2018-07-15T06:37:51.561Z,17.40
2018-07-15T06:38:57.014Z,17.40
2018-07-15T06:40:02.573Z,17.50
2018-07-15T06:41:08.122Z,17.60
2018-07-15T06:42:13.918Z,17.60
2018-07-15T06:43:19.293Z,17.70
2018-07-15T06:44:24.738Z,17.70
2018-07-15T06:45:30.157Z,17.70
2018-07-15T06:46:35.609Z,17.80
2018-07-15T06:47:41.053Z,17.90
2018-07-15T06:48:46.481Z,17.80
2018-07-15T06:49:52.014Z,17.80
2018-07-15T06:50:57.444Z,17.80
2018-07-15T06:52:02.917Z,17.90
2018-07-15T06:53:08.378Z,17.90
2018-07-15T06:54:13.920Z,18.00
2018-07-15T06:55:19.420Z,18.10
2018-07-15T06:56:24.984Z,18.10
2018-07-15T06:57:30.894Z,18.20
2018-07-15T06:58:36.346Z,18.30
2018-07-15T06:59:41.903Z,18.40
2018-07-15T07:00:47.389Z,18.40
2018-07-15T07:01:52.905Z,18.50
2018-07-15T07:02:58.523Z,18.50
2018-07-15T07:04:04.110Z,18.60
2018-07-15T07:05:09.759Z,18.70
2018-07-15T07:06:15.252Z,18.80
2018-07-15T07:07:20.979Z,18.80
2018-07-15T07:08:26.406Z,18.90
2018-07-15T07:09:31.853Z,18.90
2018-07-15T07:10:37.284Z,18.90
2018-07-15T07:11:42.711Z,18.90
2018-07-15T07:12:48.162Z,18.90
2018-07-15T07:13:53.629Z,18.90
2018-07-15T07:14:59.060Z,18.90
2018-07-15T07:16:04.509Z,18.90
2018-07-15T07:17:09.992Z,18.90
2018-07-15T07:18:15.461Z,18.90
2018-07-15T07:19:20.908Z,19.10
2018-07-15T07:20:26.473Z,19.10
2018-07-15T07:21:32.021Z,19.20
2018-07-15T07:22:37.770Z,19.20
2018-07-15T07:23:43.182Z,19.20
2018-07-15T07:24:48.650Z,19.20
2018-07-15T07:25:54.074Z,19.30
2018-07-15T07:26:59.682Z,19.30
2018-07-15T07:28:05.277Z,19.30
2018-07-15T07:29:10.729Z,19.30
2018-07-15T07:30:16.392Z,19.30
2018-07-15T07:31:22.002Z,19.30
2018-07-15T07:32:27.614Z,19.30
2018-07-15T07:33:33.165Z,19.40
2018-07-15T07:34:38.609Z,19.50
2018-07-15T07:35:44.089Z,19.60
2018-07-15T07:36:49.692Z,19.60
2018-07-15T07:37:55.343Z,19.70
2018-07-15T07:39:00.761Z,19.70
2018-07-15T07:40:06.538Z,19.80
2018-07-15T07:41:12.564Z,19.90
2018-07-15T07:42:18.092Z,19.90
2018-07-15T07:43:23.549Z,19.90
2018-07-15T07:44:29.023Z,19.90
2018-07-15T07:45:34.555Z,19.80
2018-07-15T07:46:40.027Z,19.90
2018-07-15T07:47:45.547Z,19.80
2018-07-15T07:48:51.094Z,19.90
2018-07-15T07:49:56.619Z,20.00
2018-07-15T07:51:02.054Z,20.10
2018-07-15T07:52:09.070Z,20.20
2018-07-15T07:53:14.505Z,20.20
2018-07-15T07:54:20.235Z,20.20
2018-07-15T07:55:25.733Z,20.10
2018-07-15T07:56:31.145Z,20.10
2018-07-15T07:57:36.553Z,20.20
2018-07-15T07:58:41.997Z,20.20
2018-07-15T08:00:52.947Z,20.20
2018-07-15T08:01:58.467Z,20.20
2018-07-15T08:03:04.183Z,20.20
2018-07-15T08:04:09.719Z,20.20
2018-07-15T08:05:15.340Z,20.30
2018-07-15T08:06:21.156Z,20.30
2018-07-15T08:07:26.639Z,20.30
2018-07-15T08:08:32.126Z,20.40
2018-07-15T08:09:37.716Z,20.40
2018-07-15T08:10:43.207Z,20.40
2018-07-15T08:11:49.172Z,20.40
2018-07-15T08:12:54.682Z,20.50
2018-07-15T08:14:00.103Z,20.50
2018-07-15T08:15:05.661Z,20.60
2018-07-15T08:17:16.257Z,20.60
2018-07-15T08:18:21.665Z,20.70
2018-07-15T08:19:27.060Z,20.70
2018-07-15T08:20:34.152Z,20.70
2018-07-15T08:22:44.700Z,20.70
2018-07-15T08:23:50.247Z,20.70
2018-07-15T08:24:55.729Z,20.80
2018-07-15T08:26:01.222Z,20.80
2018-07-15T08:27:07.051Z,20.90
2018-07-15T08:28:12.547Z,20.90
2018-07-15T08:29:18.082Z,20.90
2018-07-15T08:30:40.373Z,21.00
2018-07-15T08:31:45.801Z,21.00
2018-07-15T08:32:51.204Z,21.00
2018-07-15T08:33:56.980Z,21.00
2018-07-15T08:35:02.500Z,21.10
2018-07-15T08:36:08.142Z,21.10
2018-07-15T08:37:13.572Z,21.20
2018-07-15T08:38:19.153Z,21.30
2018-07-15T08:39:24.631Z,21.40
2018-07-15T08:40:30.106Z,21.50
2018-07-15T08:41:36.185Z,21.50
2018-07-15T08:42:41.689Z,21.60
2018-07-15T08:43:47.130Z,21.60
2018-07-15T08:47:05.973Z,21.60
2018-07-15T08:48:11.534Z,21.60
2018-07-15T08:49:16.992Z,21.60
2018-07-15T08:51:27.869Z,21.60
2018-07-15T08:52:33.340Z,21.60
2018-07-15T08:53:38.779Z,21.60
2018-07-15T08:54:44.594Z,21.60
2018-07-15T08:55:50.129Z,21.50
2018-07-15T08:56:55.622Z,21.50
2018-07-15T08:58:01.225Z,21.60
2018-07-15T08:59:06.725Z,21.60
2018-07-15T09:00:12.289Z,21.70
2018-07-15T09:01:17.850Z,21.70
2018-07-15T09:02:23.377Z,21.80
2018-07-15T09:03:29.013Z,21.90
2018-07-15T09:04:34.496Z,21.90
2018-07-15T09:05:40.022Z,22.00
2018-07-15T09:06:45.849Z,22.00
2018-07-15T09:07:51.266Z,22.10
2018-07-15T09:08:56.689Z,22.10
2018-07-15T09:10:02.121Z,22.10
2018-07-15T09:11:07.535Z,22.20
2018-07-15T09:12:13.027Z,22.20
2018-07-15T09:13:18.508Z,22.30
2018-07-15T09:14:23.945Z,22.40
2018-07-15T09:15:29.415Z,22.40
2018-07-15T09:16:34.823Z,22.50
2018-07-15T09:18:45.789Z,22.50
2018-07-15T09:19:51.326Z,22.60
2018-07-15T09:20:57.649Z,22.50
2018-07-15T09:22:03.108Z,22.60
2018-07-15T09:23:08.826Z,22.60
2018-07-15T09:24:14.474Z,22.80
2018-07-15T09:25:19.928Z,22.70
2018-07-15T09:26:25.403Z,22.60
2018-07-15T09:27:30.949Z,22.60
2018-07-15T09:28:36.439Z,22.70
2018-07-15T09:29:42.080Z,22.70
2018-07-15T09:30:47.546Z,22.70
2018-07-15T09:31:52.979Z,22.80
2018-07-15T09:32:58.434Z,22.80
2018-07-15T09:34:03.912Z,22.80
2018-07-15T09:36:14.433Z,22.80
2018-07-15T09:37:19.996Z,22.80
2018-07-15T09:38:25.487Z,22.80
2018-07-15T09:39:31.147Z,22.80
2018-07-15T09:40:36.625Z,22.70
2018-07-15T09:41:42.073Z,22.80
2018-07-15T09:42:47.539Z,22.90
2018-07-15T09:44:58.651Z,22.90
2018-07-15T09:46:04.097Z,22.90
2018-07-15T09:47:09.541Z,23.00
2018-07-15T09:48:14.974Z,23.00
2018-07-15T09:49:20.851Z,23.00
2018-07-15T09:50:26.283Z,22.90
2018-07-15T09:51:31.706Z,23.00
2018-07-15T09:52:37.172Z,23.10
2018-07-15T09:53:42.656Z,23.10
2018-07-15T09:54:50.733Z,23.10
2018-07-15T09:55:56.186Z,23.20
2018-07-15T09:57:01.601Z,23.10
2018-07-15T09:58:07.019Z,23.20
2018-07-15T09:59:12.443Z,23.20
2018-07-15T10:00:22.958Z,23.20
2018-07-15T10:02:33.721Z,23.50
2018-07-15T10:03:39.159Z,23.60
2018-07-15T10:04:44.750Z,23.60
2018-07-15T10:05:50.175Z,23.60
2018-07-15T10:06:55.634Z,23.70
2018-07-15T10:08:01.235Z,23.60
2018-07-15T10:09:08.293Z,23.60
2018-07-15T10:10:13.681Z,23.70
2018-07-15T10:11:19.149Z,23.70
2018-07-15T10:12:24.639Z,23.80
2018-07-15T10:13:30.106Z,23.80
2018-07-15T10:14:36.371Z,23.90
2018-07-15T10:15:41.808Z,24.00
2018-07-15T10:16:47.219Z,24.10
2018-07-15T10:17:52.764Z,24.20
2018-07-15T10:18:58.228Z,24.30
2018-07-15T10:20:03.837Z,24.40
2018-07-15T10:21:09.246Z,24.60
2018-07-15T10:22:14.709Z,24.70
2018-07-15T10:23:20.117Z,24.80
2018-07-15T10:24:25.613Z,24.80
2018-07-15T10:25:31.138Z,24.80
2018-07-15T10:26:36.688Z,24.70
2018-07-15T10:27:42.131Z,24.50
2018-07-15T10:29:52.602Z,24.30
2018-07-15T10:30:58.018Z,24.30
2018-07-15T10:32:03.517Z,24.20
2018-07-15T10:33:09.002Z,24.10
2018-07-15T10:34:14.460Z,24.10
2018-07-15T10:35:19.949Z,24.10
2018-07-15T10:36:25.489Z,24.10
2018-07-15T10:37:31.053Z,24.10
2018-07-15T10:38:36.550Z,24.20
2018-07-15T10:39:42.004Z,24.20
2018-07-15T10:40:47.602Z,24.40
2018-07-15T10:41:53.049Z,24.40
2018-07-15T10:44:04.029Z,24.60
2018-07-15T10:45:09.501Z,24.60
2018-07-15T10:46:14.987Z,24.70
2018-07-15T10:47:20.633Z,24.70
2018-07-15T10:48:26.128Z,24.60
2018-07-15T10:49:31.585Z,24.70
2018-07-15T10:50:37.014Z,24.80
2018-07-15T10:51:42.521Z,24.90
2018-07-15T10:52:47.974Z,24.90
2018-07-15T10:53:53.487Z,24.90
2018-07-15T10:54:59.061Z,24.90
2018-07-15T10:56:04.497Z,24.80
2018-07-15T10:57:09.911Z,24.80
2018-07-15T10:58:15.398Z,24.80
2018-07-15T10:59:20.905Z,24.80
2018-07-15T11:00:26.340Z,24.80
2018-07-15T11:01:31.740Z,24.80
2018-07-15T11:02:37.245Z,24.90
2018-07-15T11:03:42.697Z,24.90
2018-07-15T11:04:48.242Z,24.90
2018-07-15T11:05:53.941Z,24.90
2018-07-15T11:06:59.822Z,25.00
2018-07-15T11:08:05.638Z,25.00
2018-07-15T11:09:11.198Z,25.00
2018-07-15T11:10:16.749Z,25.00
2018-07-15T11:11:22.197Z,25.00
2018-07-15T11:12:27.773Z,25.10
2018-07-15T11:13:33.254Z,25.30
2018-07-15T11:15:43.709Z,25.40
2018-07-15T11:16:49.269Z,25.50
2018-07-15T11:17:54.705Z,25.30
2018-07-15T11:20:05.733Z,25.40
2018-07-15T11:21:11.270Z,25.60
2018-07-15T11:22:16.810Z,25.60
2018-07-15T11:23:22.408Z,25.60
2018-07-15T11:24:27.895Z,25.70
2018-07-15T11:25:33.373Z,25.60
2018-07-15T11:26:38.876Z,25.60
2018-07-15T11:27:44.341Z,25.50
2018-07-15T11:28:49.856Z,25.40
2018-07-15T11:29:55.309Z,25.30
2018-07-15T11:31:00.805Z,25.30
2018-07-15T11:32:06.186Z,25.30
2018-07-15T11:33:11.717Z,25.30
2018-07-15T11:34:17.158Z,25.30
2018-07-15T11:35:22.589Z,25.30
2018-07-15T11:36:29.417Z,25.20
2018-07-15T11:37:34.874Z,25.10
2018-07-15T11:38:40.458Z,25.20
2018-07-15T11:39:45.899Z,25.20
2018-07-15T11:40:51.357Z,25.20
2018-07-15T11:41:56.810Z,25.20
2018-07-15T11:43:02.367Z,25.30
2018-07-15T11:44:08.011Z,25.30
2018-07-15T11:45:13.441Z,25.50
2018-07-15T11:46:18.952Z,25.50
2018-07-15T11:47:24.402Z,25.60
2018-07-15T11:48:30.024Z,25.60
2018-07-15T11:49:35.641Z,25.70
2018-07-15T11:50:41.133Z,25.80
2018-07-15T11:51:46.605Z,25.80
2018-07-15T11:52:52.566Z,25.80
2018-07-15T11:53:58.149Z,25.80
2018-07-15T11:55:04.015Z,25.90
2018-07-15T11:56:09.486Z,26.10
2018-07-15T11:57:14.941Z,26.10
2018-07-15T11:58:20.432Z,26.00
2018-07-15T11:59:32.547Z,26.00
2018-07-15T12:00:38.090Z,26.00
2018-07-15T12:01:43.688Z,26.10
2018-07-15T12:02:49.120Z,26.20
2018-07-15T12:03:54.545Z,26.30
2018-07-15T12:05:00.054Z,26.30
2018-07-15T12:06:05.591Z,26.20
2018-07-15T12:07:11.003Z,26.20
2018-07-15T12:08:16.475Z,26.30
2018-07-15T12:09:21.962Z,26.20
2018-07-15T12:10:27.404Z,26.30
2018-07-15T12:11:32.817Z,26.30
2018-07-15T12:12:38.301Z,26.30
2018-07-15T12:13:43.726Z,26.30
2018-07-15T12:14:49.161Z,26.30
2018-07-15T12:15:54.641Z,26.20
2018-07-15T12:17:00.097Z,26.20
2018-07-15T12:18:05.569Z,26.30
2018-07-15T12:19:11.059Z,26.30
2018-07-15T12:20:16.501Z,26.30
2018-07-15T12:21:22.011Z,26.30
2018-07-15T12:22:27.549Z,26.40
2018-07-15T12:23:33.094Z,26.40
2018-07-15T12:24:38.519Z,26.40
2018-07-15T12:25:43.964Z,26.40
2018-07-15T12:26:49.525Z,26.10
2018-07-15T12:27:54.993Z,26.00
2018-07-15T12:29:00.464Z,26.00
2018-07-15T12:30:06.072Z,26.10
2018-07-15T12:31:11.528Z,26.20
2018-07-15T12:32:17.173Z,26.30
2018-07-15T12:34:27.721Z,26.50
2018-07-15T12:35:33.297Z,26.60
2018-07-15T12:36:38.809Z,26.50
2018-07-15T12:37:44.282Z,26.50
2018-07-15T12:38:49.772Z,26.50
2018-07-15T12:39:55.196Z,26.50
2018-07-15T12:41:00.642Z,26.50
2018-07-15T12:42:06.103Z,26.50
2018-07-15T12:43:11.578Z,26.60
2018-07-15T12:44:17.094Z,26.60
2018-07-15T12:45:22.994Z,26.60
2018-07-15T12:46:28.433Z,26.60
2018-07-15T12:47:33.876Z,26.60
2018-07-15T12:48:39.305Z,26.70
2018-07-15T12:49:44.765Z,26.70
2018-07-15T12:50:50.713Z,26.70
2018-07-15T12:53:01.259Z,26.80
2018-07-15T12:54:06.854Z,26.80
2018-07-15T12:55:12.394Z,26.80
2018-07-15T12:56:17.874Z,26.80
2018-07-15T12:57:23.385Z,26.80
2018-07-15T12:58:28.825Z,26.80
2018-07-15T12:59:34.239Z,26.80
2018-07-15T13:00:40.130Z,26.90
2018-07-15T13:01:45.791Z,27.00
2018-07-15T13:02:51.264Z,27.10
2018-07-15T13:03:56.713Z,26.90
2018-07-15T13:05:02.218Z,26.80
2018-07-15T13:06:07.770Z,26.80
2018-07-15T13:07:13.335Z,26.70
2018-07-15T13:08:18.768Z,26.70
2018-07-15T13:09:24.233Z,26.80
2018-07-15T13:10:29.697Z,26.70
2018-07-15T13:11:35.220Z,26.70
2018-07-15T13:12:40.677Z,26.70
2018-07-15T13:13:46.164Z,26.70
2018-07-15T13:14:51.702Z,26.80
2018-07-15T13:15:57.194Z,26.80
2018-07-15T13:17:02.748Z,26.90
2018-07-15T13:18:08.172Z,27.00
2018-07-15T13:19:13.625Z,27.00
2018-07-15T13:20:19.109Z,27.00
2018-07-15T13:21:24.590Z,27.00
2018-07-15T13:22:30.081Z,27.00
2018-07-15T13:23:35.617Z,26.90
2018-07-15T13:24:41.129Z,26.90
2018-07-15T13:25:46.557Z,27.00
2018-07-15T13:26:52.023Z,27.00
2018-07-15T13:27:57.470Z,27.00
2018-07-15T13:29:03.233Z,27.00
2018-07-15T13:30:08.726Z,27.00
2018-07-15T13:31:14.168Z,27.10
2018-07-15T13:32:19.659Z,27.00
2018-07-15T13:33:25.135Z,27.00
2018-07-15T13:34:30.642Z,26.90
2018-07-15T13:36:41.138Z,27.10
2018-07-15T13:37:46.569Z,27.20
2018-07-15T13:38:51.974Z,27.30
2018-07-15T13:39:57.987Z,27.30
2018-07-15T13:41:03.566Z,27.30
2018-07-15T13:42:09.074Z,27.20
2018-07-15T13:43:14.523Z,27.30
2018-07-15T13:44:19.921Z,27.20
2018-07-15T13:45:25.461Z,27.10
2018-07-15T13:46:30.994Z,27.20
2018-07-15T13:47:36.528Z,27.10
2018-07-15T13:48:42.037Z,27.20
2018-07-15T13:49:47.540Z,27.30
2018-07-15T13:50:52.992Z,27.40
2018-07-15T13:51:58.442Z,27.40
2018-07-15T13:53:03.866Z,27.40
2018-07-15T13:54:09.433Z,27.30
2018-07-15T13:55:14.981Z,27.20
2018-07-15T13:56:20.617Z,27.20
2018-07-15T13:57:26.169Z,27.30
2018-07-15T13:58:31.683Z,27.30
2018-07-15T13:59:37.194Z,27.40
2018-07-15T14:00:42.656Z,27.30
2018-07-15T14:01:48.099Z,27.30
2018-07-15T14:02:53.660Z,27.30
2018-07-15T14:03:59.191Z,27.30
2018-07-15T14:05:04.890Z,27.10
2018-07-15T14:06:10.420Z,27.10
2018-07-15T14:07:16.009Z,27.20
2018-07-15T14:08:21.474Z,27.20
2018-07-15T14:09:27.055Z,27.20
2018-07-15T14:10:32.531Z,27.30
2018-07-15T14:11:38.371Z,27.30
2018-07-15T14:12:43.813Z,27.30
2018-07-15T14:13:49.428Z,27.40
2018-07-15T14:14:54.866Z,27.50
2018-07-15T14:16:00.349Z,27.70
2018-07-15T14:17:05.927Z,27.60
2018-07-15T14:18:11.777Z,27.70
2018-07-15T14:19:17.281Z,27.70
2018-07-15T14:20:22.750Z,27.70
2018-07-15T14:21:28.250Z,27.70
2018-07-15T14:22:33.789Z,27.60
2018-07-15T14:23:39.214Z,27.60
2018-07-15T14:24:44.637Z,27.70
2018-07-15T14:25:50.053Z,27.60
2018-07-15T14:26:55.663Z,27.60